INFORMACIÓN METAR y TAF
METAR FOR LEGR
ADDS - METARS form results

(2353 UTC 23 May 2019)
Data provider http://aviationweather.gov/metar/data/
 
METAR text: LEGR 232330Z AUTO VRB02KT CAVOK 16/05 Q1017
Conditions at: LEGR (GRANADA AIRPORT , ES) observed 2330 UTC 23 May 2019
Temperature: 16.0°C (61°F)
Dewpoint: 5.0°C (41°F) [RH = 48%]
Pressure (altimeter): 30.03 inches Hg (1017.0 mb)
Winds: variable direction winds at 2 MPH (2 knots; 1.0 m/s)
Visibility: 6 or more miles (10+ km)
Ceiling: ceiling and visibility are OK
Clouds: unknown
Weather: no significant weather observed at this time

METAR text: LEGR 232300Z AUTO 00000KT 0500 R09/1400D HZ VV/// 18/04 Q1017
Conditions at: LEGR (GRANADA AIRPORT , ES) observed 2300 UTC 23 May 2019
Temperature: 18.0°C (64°F)
Dewpoint: 4.0°C (39°F) [RH = 39%]
Pressure (altimeter): 30.03 inches Hg (1017.0 mb)
Winds: calm
Visibility: 0.31 miles (0.50 km)
Ceiling: indefinite ceiling with vertical visibility of 0 feet AGL
Clouds: obscured sky
Weather: HZ  (haze)

Forecast for: LEGR (GRANADA AIRPORT , ES)
Text: TAF LEGR 232000Z 2321/2421 VRB03KT 9999 FEW060 TX30/2415Z TN11/2405Z
Forecast period: 2100 UTC 23 May 2019 to 1100 UTC 24 May 2019
Forecast type: FROM: standard forecast or significant change
Winds: variable direction winds at 3 MPH (3 knots; 1.5 m/s)
Visibility: 6 or more miles 10+ km)
Ceiling: at least 12,000 feet AGL
Clouds: few clouds at 6000 feet AGL
Weather: no significant weather forecast for this period
Text: BECMG 2411/2413 29010KT
Forecast period: 1100 to 1800 UTC 24 May 2019
Forecast type: BECOMING: Conditions expected to become as follows by 1300 UTC 24 May 2019
Winds: from the WNW (290 degrees) at 12 MPH (10 knots; 5.1 m/s)
Visibility: 6 or more miles 10+ km)
Ceiling: at least 12,000 feet AGL
Clouds: few clouds at 6000 feet AGL
Weather: no significant weather forecast for this period
Text: BECMG 2418/2420 VRB02KT
Forecast period: 1800 to 2100 UTC 24 May 2019
Forecast type: BECOMING: Conditions expected to become as follows by 2000 UTC 24 May 2019
Winds: variable direction winds at 2 MPH (2 knots; 1.0 m/s)
Visibility: 6 or more miles 10+ km)
Ceiling: at least 12,000 feet AGL
Clouds: few clouds at 6000 feet AGL
Weather: no significant weather forecast for this period

 MAPA DE AEROPUERTO

 INFORMACIÓN DE PISTA
Pista 09 Longitud 9514 ft Ancho 148 ft
Elevación 1842 ft Umbral desplazado 0 ft Rumbo de pista 90
Pista 27 Longitud 9514 ft Ancho 148 ft
Elevación 1860 ft Umbral desplazado 0 ft Rumbo de pista 270

 FRECUANCIAS DEL AEROPUERTO
Tipo GND Nombre GND Frecuencia 121.7 MHZ
Tipo TWR Nombre TWR Frecuencia 118.85 MHZ

 RADIO AYUDAS DEL AEROPUERTO
Tipo VOR-DME Nombre Granada Frecuencia 113400 KHZ



              


PayPal

©2019 Oasis Virtual Airlines
Simulando desde el 2013

Oasis Líneas Aéreas Virtuales no está relacionada con ninguna compañía real.
Se trata de un entorno virtual de simulación aérea, sin ánimo de lucro.


Visitas:

VAM v2.6.2 [MOD.]